Time;durP1;ratioP1;P1;durP2;ratioP2;P2;SDS_P1;SDS_P2;PMS_P1;PMS_P2;Temp;Humidity;BMP_temperature;BMP_pressure;BME280_temperature;BME280_humidity;BME280_pressure;Samples;Min_cycle;Max_cycle;Signal;HPM_P1;HPM_P2
2020/12/28 01:07:54;;;;;;;12.68;8.23;;;;;;;1.35;81.40;96964.42;2121774;79;21132;-93
2020/12/28 01:17:50;;;;;;;14.77;8.97;;;;;;;1.36;81.87;96937.66;2184506;80;21175;-92
2020/12/28 01:20:54;;;;;;;11.78;7.75;;;;;;;1.39;81.85;96944.28;2084083;83;21335;-94
2020/12/28 01:23:57;;;;;;;14.38;8.20;;;;;;;1.43;82.17;96932.66;2073571;84;21807;-93
2020/12/28 01:27:00;;;;;;;14.65;8.58;;;;;;;1.47;82.19;96920.25;2098066;83;21178;-94
2020/12/28 01:30:05;;;;;;;12.90;8.98;;;;;;;1.50;82.21;96913.45;2093366;83;21191;-93
2020/12/28 01:33:08;;;;;;;7.75;5.72;;;;;;;1.50;82.76;96903.94;2075650;84;21191;-93
2020/12/28 01:36:10;;;;;;;9.98;6.85;;;;;;;1.53;82.61;96895.06;2094343;84;21348;-94
2020/12/28 01:39:19;;;;;;;8.03;6.12;;;;;;;1.51;82.77;96894.42;2161007;80;21171;-93
2020/12/28 01:42:24;;;;;;;10.00;5.62;;;;;;;1.61;83.16;96893.74;2186936;80;21147;-93
2020/12/28 01:45:27;;;;;;;8.23;5.47;;;;;;;1.65;83.09;96889.88;2195164;80;21292;-94
2020/12/28 01:48:32;;;;;;;7.95;5.80;;;;;;;1.66;83.05;96885.03;2194572;80;21524;-93
2020/12/28 01:51:35;;;;;;;7.05;5.33;;;;;;;1.67;83.09;96880.98;2207665;79;21123;-92
2020/12/28 01:54:37;;;;;;;7.70;5.65;;;;;;;1.73;83.30;96878.69;2200852;80;21638;-95
2020/12/28 01:57:40;;;;;;;9.75;5.50;;;;;;;1.71;83.17;96852.57;2202676;80;21151;-92
2020/12/28 02:00:48;;;;;;;6.85;5.17;;;;;;;1.79;83.42;96841.89;2175301;80;21115;-93
2020/12/28 02:03:46;;;;;;;8.08;5.37;;;;;;;1.81;83.64;96833.00;2173513;80;21282;-93
2020/12/28 02:06:49;;;;;;;5.80;3.90;;;;;;;1.83;83.71;96834.95;2190729;79;21215;-92
2020/12/28 02:09:57;;;;;;;7.17;4.83;;;;;;;1.87;83.68;96827.17;2194747;80;21303;-93
2020/12/28 02:13:05;;;;;;;6.08;4.65;;;;;;;1.86;83.70;96816.53;2186167;80;21186;-93
2020/12/28 02:16:08;;;;;;;6.08;4.03;;;;;;;1.86;84.33;96817.83;2189919;79;21649;-93
2020/12/28 02:19:11;;;;;;;6.12;4.78;;;;;;;1.89;84.09;96817.47;2173735;80;21297;-93
2020/12/28 02:22:17;;;;;;;6.80;4.78;;;;;;;1.89;84.13;96808.93;2209255;79;21622;-94
2020/12/28 02:25:19;;;;;;;6.17;4.17;;;;;;;1.90;84.21;96802.79;2200276;79;21275;-93
2020/12/28 02:28:21;;;;;;;5.22;3.95;;;;;;;1.90;84.48;96804.88;2191361;79;21181;-94
2020/12/28 02:31:24;;;;;;;3.62;3.20;;;;;;;1.91;84.36;96798.73;2190597;80;21190;-93
2020/12/28 02:34:26;;;;;;;6.92;4.05;;;;;;;1.93;84.84;96790.85;2171400;80;21294;-94
2020/12/28 02:37:29;;;;;;;5.25;3.75;;;;;;;1.96;84.75;96782.75;2205897;80;21708;-95
2020/12/28 02:40:32;;;;;;;6.10;4.12;;;;;;;1.97;84.79;96781.28;2190949;80;21159;-93
2020/12/28 02:43:35;;;;;;;5.30;3.92;;;;;;;1.99;84.75;96781.11;2193982;80;21126;-93
2020/12/28 02:46:37;;;;;;;5.55;3.80;;;;;;;2.00;84.92;96773.19;2186463;80;21189;-93
2020/12/28 02:49:41;;;;;;;4.25;3.60;;;;;;;2.03;84.68;96786.26;2189609;80;21151;-92
2020/12/28 02:52:42;;;;;;;4.78;4.05;;;;;;;2.06;84.79;96786.39;2194718;80;21162;-92
2020/12/28 02:55:44;;;;;;;7.80;4.60;;;;;;;2.06;84.78;96782.03;2181515;80;21119;-93
2020/12/28 02:58:48;;;;;;;5.40;4.08;;;;;;;2.06;85.08;96769.13;2191013;80;21136;-92
2020/12/28 03:01:52;;;;;;;6.60;4.72;;;;;;;2.08;84.94;96763.29;2186094;80;21221;-93
2020/12/28 03:04:57;;;;;;;5.70;4.15;;;;;;;2.07;84.97;96759.11;2199311;79;21298;-93
2020/12/28 03:07:59;;;;;;;6.40;4.78;;;;;;;2.07;85.23;96750.56;2198058;80;21151;-94
2020/12/28 03:11:04;;;;;;;5.25;3.80;;;;;;;2.08;85.60;96749.09;2190738;80;21308;-94
2020/12/28 03:49:13;;;;;;;3.37;3.02;;;;;;;2.21;85.72;96722.20;2198470;80;21147;-94
2020/12/28 04:13:57;;;;;;;4.33;2.77;;;;;;;2.39;85.79;96688.30;2098970;83;21301;-94
2020/12/28 04:16:58;;;;;;;3.47;2.80;;;;;;;2.45;85.51;96719.86;2091019;83;21166;-94
2020/12/28 04:20:00;;;;;;;3.40;3.10;;;;;;;2.50;85.30;96735.66;2074862;83;21269;-94
2020/12/28 04:23:04;;;;;;;3.90;3.30;;;;;;;2.46;85.18;96741.33;2115310;83;21280;-94
2020/12/28 04:26:06;;;;;;;4.62;3.80;;;;;;;2.50;85.43;96734.36;2137137;82;21183;-94
2020/12/28 04:29:20;;;;;;;3.50;3.20;;;;;;;2.50;85.31;96733.56;2130417;83;21208;-94
2020/12/28 04:32:23;;;;;;;3.02;2.70;;;;;;;2.51;85.60;96711.42;2119826;83;21182;-94
2020/12/28 04:35:26;;;;;;;3.77;2.98;;;;;;;2.54;85.79;96698.63;2123812;83;21178;-93
2020/12/28 04:38:31;;;;;;;2.45;2.25;;;;;;;2.58;85.90;96697.80;2125921;83;21156;-94
2020/12/28 04:41:35;;;;;;;4.20;3.22;;;;;;;2.60;85.53;96695.34;2186178;80;21551;-94
2020/12/28 04:44:38;;;;;;;3.80;3.12;;;;;;;2.64;85.59;96722.42;2185433;79;21190;-94
2020/12/28 04:47:46;;;;;;;3.10;2.80;;;;;;;2.65;85.62;96723.22;2199511;80;21194;-93
2020/12/28 04:50:49;;;;;;;2.90;2.65;;;;;;;2.63;85.89;96721.31;2185134;79;21167;-93
2020/12/28 04:53:51;;;;;;;3.02;2.72;;;;;;;2.65;85.64;96706.42;2187488;80;21222;-93
2020/12/28 04:56:53;;;;;;;2.65;2.45;;;;;;;2.67;85.40;96709.66;2195400;80;21594;-93
2020/12/28 04:59:55;;;;;;;3.42;3.05;;;;;;;2.64;85.86;96701.74;2214866;79;21218;-93
2020/12/28 05:02:59;;;;;;;4.10;3.02;;;;;;;2.63;85.81;96712.27;2184807;79;21315;-93
2020/12/28 05:06:02;;;;;;;4.55;3.72;;;;;;;2.62;85.87;96702.91;2180377;80;21316;-93
2020/12/28 05:09:08;;;;;;;3.20;2.85;;;;;;;2.62;86.06;96699.84;2170627;80;21308;-95
2020/12/28 05:12:10;;;;;;;3.58;3.02;;;;;;;2.63;86.01;96699.34;2185262;80;21154;-93
2020/12/28 05:15:12;;;;;;;3.50;3.17;;;;;;;2.63;86.24;96707.09;2189333;79;21175;-93
2020/12/28 05:18:15;;;;;;;4.33;3.17;;;;;;;2.65;86.58;96715.00;2179664;79;21273;-93
2020/12/28 05:21:18;;;;;;;6.25;3.70;;;;;;;2.69;86.23;96707.19;2185308;80;21178;-93
2020/12/28 05:24:34;;;;;;;2.90;2.60;;;;;;;2.71;86.08;96709.59;2189091;80;21258;-93
2020/12/28 05:27:40;;;;;;;6.50;2.47;;;;;;;2.71;85.89;96683.26;2190599;80;21162;-93
2020/12/28 05:31:02;;;;;;;4.17;3.22;;;;;;;2.73;86.17;96685.66;2207851;80;21103;-92
2020/12/28 05:34:05;;;;;;;4.00;2.87;;;;;;;2.72;86.06;96690.52;2203137;80;21282;-93
2020/12/28 05:37:08;;;;;;;5.42;3.40;;;;;;;2.68;86.25;96682.83;2185488;80;21199;-93
2020/12/28 05:40:10;;;;;;;5.92;3.70;;;;;;;2.65;86.46;96701.25;2196364;80;21238;-94
2020/12/28 05:43:17;;;;;;;6.65;4.97;;;;;;;2.60;86.10;96680.33;2187716;79;21292;-94
2020/12/28 05:46:18;;;;;;;4.37;3.47;;;;;;;2.54;86.33;96683.13;2193695;79;21183;-94
2020/12/28 05:49:24;;;;;;;8.35;6.85;;;;;;;2.46;86.19;96695.63;2190091;80;21150;-95
2020/12/28 05:52:28;;;;;;;8.15;6.00;;;;;;;2.37;86.71;96682.48;2181064;80;21579;-93
2020/12/28 05:55:30;;;;;;;6.22;4.90;;;;;;;2.33;86.47;96684.33;2198641;80;21163;-93
2020/12/28 05:58:36;;;;;;;7.67;5.22;;;;;;;2.25;86.33;96690.38;2178035;80;21306;-94
2020/12/28 06:01:40;;;;;;;7.97;6.17;;;;;;;2.18;86.59;96692.84;2184423;80;21150;-93
2020/12/28 06:04:42;;;;;;;7.40;5.53;;;;;;;2.11;86.83;96686.80;2191370;80;21166;-93
2020/12/28 06:07:45;;;;;;;9.53;6.85;;;;;;;2.05;87.02;96687.98;2198701;79;21148;-93
2020/12/28 06:10:50;;;;;;;9.80;5.92;;;;;;;1.99;86.96;96677.86;2201707;80;21287;-93
2020/12/28 06:13:54;;;;;;;9.55;6.20;;;;;;;1.94;87.57;96674.52;2196325;79;21163;-93
2020/12/28 06:16:59;;;;;;;9.55;7.10;;;;;;;1.92;87.61;96674.36;2173541;80;21111;-94
2020/12/28 06:59:32;;;;;;;9.73;5.20;;;;;;;2.10;88.03;96668.88;2019778;86;21261;-94
2020/12/28 07:16:42;;;;;;;7.00;5.28;;;;;;;2.23;87.79;96672.97;2221440;80;27276;-95
2020/12/28 07:19:45;;;;;;;9.28;5.70;;;;;;;2.19;87.92;96669.11;2190357;81;21302;-93
2020/12/28 07:22:47;;;;;;;8.28;5.67;;;;;;;2.23;87.86;96660.85;2187681;81;21297;-90
2020/12/28 07:25:49;;;;;;;8.78;6.97;;;;;;;2.28;87.80;96647.39;2188158;81;21187;-93
2020/12/28 07:28:51;;;;;;;7.20;5.28;;;;;;;2.34;87.76;96646.70;2188400;81;21142;-94
2020/12/28 07:31:52;;;;;;;6.37;4.90;;;;;;;2.45;87.65;96630.75;2188578;81;21285;-93
2020/12/28 07:34:54;;;;;;;7.12;5.97;;;;;;;2.70;87.35;96629.17;2187895;81;21312;-92
2020/12/28 07:37:55;;;;;;;6.85;5.08;;;;;;;2.80;86.94;96616.27;2188096;81;21228;-93
2020/12/28 07:40:57;;;;;;;6.20;4.08;;;;;;;2.85;86.90;96606.20;2188773;81;21289;-93
2020/12/28 07:43:59;;;;;;;6.03;4.67;;;;;;;2.89;87.00;96595.48;2187760;81;21308;-92
2020/12/28 07:47:00;;;;;;;8.53;4.95;;;;;;;2.94;87.06;96600.92;2187664;81;21298;-91
2020/12/28 07:50:02;;;;;;;6.03;5.30;;;;;;;3.01;87.00;96588.35;2187890;81;21167;-92
2020/12/28 07:53:04;;;;;;;8.23;5.70;;;;;;;3.06;87.04;96585.23;2188244;81;21193;-91
2020/12/28 07:56:06;;;;;;;9.90;7.12;;;;;;;3.12;86.93;96598.73;2187962;81;21179;-92
2020/12/28 07:59:07;;;;;;;8.65;6.00;;;;;;;3.18;86.92;96593.30;2187894;81;21127;-92
2020/12/28 08:02:09;;;;;;;8.53;5.67;;;;;;;3.24;86.81;96594.66;2187839;81;21297;-91
2020/12/28 08:05:10;;;;;;;4.80;4.30;;;;;;;3.32;86.83;96573.05;2187873;81;21272;-92
2020/12/28 08:08:12;;;;;;;7.87;5.83;;;;;;;3.39;86.74;96588.94;2187949;81;21304;-91
2020/12/28 08:11:13;;;;;;;8.93;5.95;;;;;;;3.47;86.62;96555.64;2188162;81;21166;-92
2020/12/28 08:14:15;;;;;;;7.15;5.60;;;;;;;3.57;86.42;96582.03;2185833;81;21222;-91
2020/12/28 08:17:17;;;;;;;8.03;6.03;;;;;;;3.60;86.32;96576.96;2171614;82;21298;-92
2020/12/28 08:20:19;;;;;;;8.23;5.40;;;;;;;3.77;86.16;96593.02;2171637;82;21140;-92
2020/12/28 08:23:20;;;;;;;7.20;5.37;;;;;;;3.84;85.67;96549.38;2171634;82;21293;-92
2020/12/28 08:26:22;;;;;;;8.30;5.92;;;;;;;3.89;85.47;96521.61;2171322;82;21725;-90
2020/12/28 08:29:23;;;;;;;9.00;5.97;;;;;;;3.94;85.30;96540.77;2170567;82;21321;-91
2020/12/28 08:32:25;;;;;;;8.08;5.53;;;;;;;4.04;85.03;96530.56;2170736;82;21139;-91
2020/12/28 08:35:30;;;;;;;7.50;5.80;;;;;;;4.09;84.83;96542.42;2170803;82;21196;-89
2020/12/28 08:38:32;;;;;;;9.90;5.97;;;;;;;4.16;84.57;96530.31;2170685;82;21317;-91
2020/12/28 08:41:34;;;;;;;7.03;5.62;;;;;;;4.22;84.23;96521.78;2170823;82;21298;-93
2020/12/28 08:44:35;;;;;;;8.95;5.42;;;;;;;4.29;84.10;96504.45;2170834;82;21281;-91
2020/12/28 08:47:37;;;;;;;8.75;6.10;;;;;;;4.36;84.03;96507.08;2171272;82;22215;-94
2020/12/28 08:50:38;;;;;;;6.83;4.83;;;;;;;4.41;83.84;96508.11;2171297;82;21285;-92
2020/12/28 08:53:40;;;;;;;6.50;5.17;;;;;;;4.45;83.11;96482.59;2171450;82;21183;-93
2020/12/28 08:56:42;;;;;;;6.00;4.95;;;;;;;4.53;83.18;96491.50;2171203;82;21148;-94
2020/12/28 08:59:45;;;;;;;7.53;4.80;;;;;;;4.58;83.10;96492.22;2173712;82;21306;-96
2020/12/28 09:09:55;;;;;;;7.83;6.78;;;;;;;4.79;82.62;96478.59;2035078;87;21178;-94
2020/12/28 09:12:58;;;;;;;7.40;5.37;;;;;;;4.87;82.01;96475.52;2035864;87;21371;-94
2020/12/28 09:16:00;;;;;;;8.83;5.42;;;;;;;4.94;82.31;96475.01;2021564;87;21371;-92
2020/12/28 09:19:02;;;;;;;6.78;4.58;;;;;;;5.00;82.28;96450.88;2014400;88;21674;-92
2020/12/28 09:22:03;;;;;;;5.95;4.45;;;;;;;5.06;82.32;96465.16;2014361;88;21222;-93
2020/12/28 09:25:05;;;;;;;6.45;5.12;;;;;;;5.11;81.62;96454.17;2014033;88;21190;-90
2020/12/28 09:28:07;;;;;;;9.83;6.03;;;;;;;5.13;81.40;96436.13;2013065;88;21661;-90
2020/12/28 09:31:08;;;;;;;8.33;5.60;;;;;;;5.16;81.27;96438.81;2014030;88;21275;-93
2020/12/28 09:34:10;;;;;;;6.67;5.47;;;;;;;5.21;81.03;96440.80;2013530;88;21203;-94
2020/12/28 09:37:11;;;;;;;7.85;5.60;;;;;;;5.22;81.08;96428.15;2013859;88;21649;-93
2020/12/28 09:40:15;;;;;;;8.55;6.03;;;;;;;5.24;80.93;96410.08;2088648;83;21124;-96
2020/12/28 09:43:17;;;;;;;8.50;6.65;;;;;;;5.29;80.69;96408.16;2143730;82;21147;-93
2020/12/28 09:46:19;;;;;;;9.48;5.75;;;;;;;5.30;80.37;96418.83;2143864;83;21128;-94
2020/12/28 09:49:20;;;;;;;7.67;5.83;;;;;;;5.35;81.21;96424.23;2144460;82;21289;-93
2020/12/28 09:52:22;;;;;;;9.73;6.85;;;;;;;5.37;80.68;96413.94;2147067;83;21159;-92
2020/12/28 09:55:24;;;;;;;9.43;6.08;;;;;;;5.39;80.51;96413.73;2146288;83;21309;-94
2020/12/28 09:58:26;;;;;;;11.00;6.28;;;;;;;5.39;80.21;96400.28;2145303;83;21158;-94
2020/12/28 10:01:27;;;;;;;8.85;6.70;;;;;;;5.42;80.70;96395.18;2100342;85;21155;-92
2020/12/28 10:04:29;;;;;;;9.38;6.17;;;;;;;5.44;80.33;96397.06;2100376;85;21332;-96
2020/12/28 10:07:31;;;;;;;9.28;7.10;;;;;;;5.46;80.25;96405.44;2100299;85;21159;-96
2020/12/28 10:10:33;;;;;;;8.28;6.05;;;;;;;5.48;80.51;96405.23;2101860;85;21297;-94
2020/12/28 10:13:34;;;;;;;9.45;6.12;;;;;;;5.47;79.44;96390.66;2102165;85;21146;-94
2020/12/28 10:16:36;;;;;;;9.98;6.45;;;;;;;5.50;79.64;96396.77;2120811;83;21301;-93
2020/12/28 10:19:37;;;;;;;11.10;6.12;;;;;;;5.52;79.89;96411.63;2170851;82;21313;-92
2020/12/28 10:22:54;;;;;;;7.25;6.17;;;;;;;5.56;80.17;96416.70;2171682;82;21305;-96
2020/12/28 10:25:58;;;;;;;8.93;6.62;;;;;;;5.57;79.81;96410.50;2172434;82;22210;-92
2020/12/28 10:29:00;;;;;;;8.33;6.25;;;;;;;5.65;79.32;96411.08;2171717;82;21293;-96
2020/12/28 10:32:08;;;;;;;9.05;6.10;;;;;;;5.68;79.71;96393.02;2173399;82;21140;-94
2020/12/28 10:35:14;;;;;;;9.23;5.58;;;;;;;5.64;79.14;96391.81;2171856;82;21742;-93
2020/12/28 10:38:15;;;;;;;11.83;7.53;;;;;;;5.68;79.41;96396.91;2170844;82;21325;-94
2020/12/28 10:41:17;;;;;;;7.90;6.87;;;;;;;5.70;79.17;96392.30;2170639;82;21354;-93
2020/12/28 10:44:19;;;;;;;10.05;6.15;;;;;;;5.71;79.03;96373.92;2170754;82;21750;-93
2020/12/28 10:47:21;;;;;;;7.62;6.33;;;;;;;5.76;79.25;96368.13;2170859;82;21337;-90
2020/12/28 10:50:23;;;;;;;11.80;7.78;;;;;;;5.78;79.05;96358.33;2170711;82;21325;-90
2020/12/28 10:53:25;;;;;;;7.45;5.97;;;;;;;5.77;78.72;96338.56;2171256;82;21326;-90
2020/12/28 10:56:27;;;;;;;7.40;5.80;;;;;;;5.81;78.93;96335.03;2172837;82;21254;-91
2020/12/28 10:59:29;;;;;;;10.05;6.83;;;;;;;5.79;78.77;96331.34;2171475;82;21235;-92
2020/12/28 11:02:30;;;;;;;8.90;7.10;;;;;;;5.75;78.78;96328.86;2170410;82;21615;-91
2020/12/28 11:05:32;;;;;;;7.08;5.03;;;;;;;5.67;78.63;96314.33;2170463;82;21289;-91
2020/12/28 11:08:34;;;;;;;5.97;4.75;;;;;;;5.62;78.56;96312.84;2170036;82;21191;-91
2020/12/28 11:11:36;;;;;;;5.85;4.60;;;;;;;5.58;78.55;96323.36;2170270;82;21313;-93
2020/12/28 11:14:37;;;;;;;4.30;3.90;;;;;;;5.55;78.58;96309.47;2171466;81;21337;-91
2020/12/28 11:17:38;;;;;;;5.30;3.45;;;;;;;5.55;78.16;96303.48;2187151;81;21278;-90
2020/12/28 11:20:40;;;;;;;5.78;3.27;;;;;;;5.57;78.01;96310.05;2186990;81;21158;-89
2020/12/28 11:27:03;;;;;;;3.85;2.20;;;;;;;5.67;77.03;96319.52;2187811;81;21158;-92
2020/12/28 11:30:05;;;;;;;2.02;1.82;;;;;;;5.72;76.46;96325.38;2188346;81;21171;-91
2020/12/28 11:33:07;;;;;;;2.05;1.87;;;;;;;5.77;75.69;96321.67;2188260;81;21309;-91
2020/12/28 11:36:08;;;;;;;2.08;1.95;;;;;;;5.84;76.51;96323.72;2188700;81;21269;-96
2020/12/28 11:39:11;;;;;;;2.55;2.22;;;;;;;5.93;75.55;96328.20;2188281;81;21143;-92
2020/12/28 11:42:15;;;;;;;2.05;1.95;;;;;;;6.00;74.67;96325.07;2187770;81;21284;-92
2020/12/28 11:45:23;;;;;;;3.90;1.90;;;;;;;6.05;74.36;96322.66;2187873;81;21382;-94
2020/12/28 11:48:25;;;;;;;2.20;2.00;;;;;;;6.10;74.51;96327.22;2188056;81;21143;-92
2020/12/28 11:51:26;;;;;;;1.70;1.60;;;;;;;6.12;74.26;96322.09;2187393;81;21286;-93
2020/12/28 11:54:36;;;;;;;2.22;1.95;;;;;;;6.16;73.53;96321.20;2187105;81;21183;-92
2020/12/28 11:57:37;;;;;;;1.77;1.67;;;;;;;6.18;73.30;96314.77;2188048;81;21278;-94
2020/12/28 12:00:39;;;;;;;2.67;2.30;;;;;;;6.20;73.85;96308.86;2188304;81;21170;-94
2020/12/28 12:03:41;;;;;;;2.90;1.95;;;;;;;6.17;73.47;96309.28;2188325;81;21268;-92
2020/12/28 12:06:43;;;;;;;2.27;2.08;;;;;;;6.13;73.95;96291.74;2188742;81;21107;-93
2020/12/28 12:09:46;;;;;;;2.55;1.92;;;;;;;6.08;73.64;96301.95;2187728;81;21144;-92
2020/12/28 12:12:47;;;;;;;3.00;2.00;;;;;;;6.05;73.62;96311.47;2187536;81;21329;-93
2020/12/28 12:15:49;;;;;;;2.58;2.37;;;;;;;6.01;74.04;96308.48;2185181;81;21285;-92
2020/12/28 12:18:54;;;;;;;4.97;2.12;;;;;;;5.96;73.72;96321.31;2181447;81;21138;-95
2020/12/28 12:21:59;;;;;;;2.58;1.98;;;;;;;5.92;73.97;96323.52;2180659;81;21158;-92
2020/12/28 12:25:00;;;;;;;3.20;2.10;;;;;;;5.93;73.96;96319.11;2181237;81;21143;-92
2020/12/28 12:28:02;;;;;;;4.55;2.20;;;;;;;5.92;74.06;96311.83;2180864;81;21143;-92
2020/12/28 12:31:03;;;;;;;3.27;2.55;;;;;;;5.92;73.66;96293.64;2180945;81;21625;-91
2020/12/28 12:34:05;;;;;;;3.67;2.47;;;;;;;5.92;73.98;96285.84;2180894;82;21233;-91
2020/12/28 12:37:06;;;;;;;2.87;2.35;;;;;;;5.90;73.91;96269.69;2181603;81;21280;-93
2020/12/28 12:40:08;;;;;;;3.95;2.58;;;;;;;5.88;73.43;96265.17;2180821;82;21162;-91
2020/12/28 12:43:10;;;;;;;2.33;2.17;;;;;;;5.90;73.40;96263.66;2180828;81;21179;-91
2020/12/28 12:46:13;;;;;;;2.87;1.95;;;;;;;5.89;73.43;96251.69;2180732;81;21158;-91
2020/12/28 12:49:15;;;;;;;2.30;1.90;;;;;;;5.88;73.46;96263.09;2180616;81;21198;-91
2020/12/28 12:52:18;;;;;;;2.65;2.42;;;;;;;5.86;73.53;96268.49;2181681;81;21302;-92
2020/12/28 12:55:19;;;;;;;6.33;3.55;;;;;;;5.87;73.69;96267.48;2180958;81;21662;-90
2020/12/28 12:58:21;;;;;;;2.70;2.40;;;;;;;5.85;73.26;96264.31;2180916;81;21175;-91
2020/12/28 13:01:23;;;;;;;2.55;2.10;;;;;;;5.84;73.50;96265.79;2180926;81;21605;-91
2020/12/28 13:04:31;;;;;;;4.20;2.60;;;;;;;5.81;72.96;96265.71;2181047;82;21178;-91
2020/12/28 13:07:33;;;;;;;3.55;2.72;;;;;;;5.82;73.20;96275.59;2180770;82;21198;-92
2020/12/28 13:10:35;;;;;;;3.42;2.62;;;;;;;5.82;73.48;96268.60;2181094;81;21154;-93
2020/12/28 13:13:36;;;;;;;4.33;2.80;;;;;;;5.82;73.59;96278.19;2181495;81;21139;-91
2020/12/28 13:16:38;;;;;;;2.67;2.37;;;;;;;5.80;73.59;96277.11;2176539;81;21341;-91
2020/12/28 13:19:40;;;;;;;4.22;2.98;;;;;;;5.81;73.60;96285.69;2171827;82;21325;-90
2020/12/28 13:22:42;;;;;;;3.08;2.52;;;;;;;5.81;73.85;96280.50;2171385;82;21285;-90
2020/12/28 13:25:43;;;;;;;3.47;2.92;;;;;;;5.84;73.91;96296.95;2172161;82;21314;-92
2020/12/28 13:28:48;;;;;;;4.58;3.35;;;;;;;5.83;74.34;96288.37;2171373;82;21321;-91
2020/12/28 13:31:49;;;;;;;3.05;2.50;;;;;;;5.87;74.13;96293.45;2171316;82;21324;-93
2020/12/28 13:34:52;;;;;;;4.90;3.42;;;;;;;5.86;73.75;96302.25;2171758;82;21334;-92
2020/12/28 13:37:54;;;;;;;3.17;2.87;;;;;;;5.83;73.95;96317.44;2171529;82;21305;-91
2020/12/28 13:40:55;;;;;;;6.37;3.65;;;;;;;5.80;74.04;96319.16;2171655;82;21310;-92
2020/12/28 13:43:58;;;;;;;4.20;3.30;;;;;;;5.73;73.75;96325.67;2171291;82;21155;-94
2020/12/28 13:47:00;;;;;;;4.95;3.55;;;;;;;5.74;74.70;96344.14;2171245;82;21805;-93
2020/12/28 13:50:02;;;;;;;4.05;3.65;;;;;;;5.68;74.19;96330.20;2171356;82;21163;-93
2020/12/28 13:53:04;;;;;;;4.83;4.08;;;;;;;5.63;74.29;96337.00;2171425;82;21129;-92
2020/12/28 13:56:05;;;;;;;5.53;3.87;;;;;;;5.55;74.41;96341.92;2171088;82;21317;-93
2020/12/28 13:59:07;;;;;;;5.80;4.05;;;;;;;5.48;74.27;96339.84;2172030;82;22173;-93
2020/12/28 14:02:15;;;;;;;3.90;3.30;;;;;;;5.40;74.74;96343.48;2168347;82;21178;-94
2020/12/28 14:05:16;;;;;;;6.80;4.30;;;;;;;5.36;75.11;96360.44;2151271;82;21151;-93
2020/12/28 14:08:18;;;;;;;6.35;4.17;;;;;;;5.31;74.86;96352.48;2171732;82;21313;-93
2020/12/28 14:11:20;;;;;;;6.30;5.17;;;;;;;5.26;74.93;96364.47;2171425;82;21318;-90
2020/12/28 14:14:25;;;;;;;5.60;4.35;;;;;;;5.20;75.13;96358.28;2172509;82;21285;-94
2020/12/28 14:17:34;;;;;;;5.47;3.90;;;;;;;5.14;75.20;96366.38;2178711;82;21313;-91
2020/12/28 14:20:39;;;;;;;5.53;3.95;;;;;;;5.06;75.54;96345.05;2183066;82;21135;-92
2020/12/28 14:23:42;;;;;;;6.05;4.78;;;;;;;5.04;75.26;96343.16;2181843;82;21281;-92
2020/12/28 14:26:47;;;;;;;8.13;5.15;;;;;;;5.02;75.25;96352.91;2181754;82;21323;-93
2020/12/28 14:30:00;;;;;;;;;;;;;;;;;;;;;
2020/12/28 14:33:10;;;;;;;7.00;4.25;;;;;;;5.01;75.17;96372.08;2173710;82;21147;-93
2020/12/28 14:36:12;;;;;;;4.35;3.72;;;;;;;5.05;75.02;96373.28;2181719;82;21329;-95
2020/12/28 14:39:21;;;;;;;5.65;4.35;;;;;;;5.08;74.68;96381.95;2180896;82;21572;-95
2020/12/28 14:42:22;;;;;;;7.58;4.58;;;;;;;5.12;74.64;96383.13;2181166;82;21258;-94
2020/12/28 14:45:25;;;;;;;6.83;4.55;;;;;;;5.15;74.23;96389.23;2181077;82;21154;-94
2020/12/28 14:48:28;;;;;;;7.67;4.95;;;;;;;5.14;74.45;96402.70;2181130;82;21277;-92
2020/12/28 14:51:33;;;;;;;8.40;5.65;;;;;;;5.14;74.40;96399.31;2182577;82;21294;-94
2020/12/28 14:54:38;;;;;;;8.70;5.85;;;;;;;5.09;74.57;96388.23;2179685;82;21119;-94
2020/12/28 14:57:42;;;;;;;5.72;4.35;;;;;;;5.08;74.39;96385.34;2182815;82;21187;-94
2020/12/28 15:00:47;;;;;;;6.50;4.62;;;;;;;5.09;74.50;96388.73;2182879;82;21142;-89
2020/12/28 15:03:53;;;;;;;;;;;;;;;5.10;74.11;96396.81;2185118;82;21151;-92
2020/12/28 15:06:55;;;;;;;5.83;4.80;;;;;;;5.10;74.20;96393.71;2181436;82;20173;-92
2020/12/28 15:09:57;;;;;;;6.30;4.53;;;;;;;5.08;73.62;96398.31;2180921;82;21614;-92
2020/12/28 15:12:59;;;;;;;8.28;4.70;;;;;;;5.04;73.59;96411.39;2181815;82;21312;-92
2020/12/28 15:16:01;;;;;;;5.53;4.17;;;;;;;4.99;73.67;96422.06;2152396;82;21265;-95
2020/12/28 15:19:06;;;;;;;7.47;4.58;;;;;;;4.94;73.65;96427.03;2183045;81;21139;-92
2020/12/28 15:22:18;;;;;;;9.10;5.75;;;;;;;4.91;73.50;96430.83;2180077;82;21586;-89
2020/12/28 15:25:23;;;;;;;8.98;5.50;;;;;;;4.90;73.40;96425.34;2152058;82;21301;-91
2020/12/28 15:28:29;;;;;;;10.32;5.33;;;;;;;4.84;73.46;96430.81;2179929;81;21269;-91
2020/12/28 15:31:36;;;;;;;10.32;6.20;;;;;;;4.77;73.33;96445.59;2182614;81;21147;-89
2020/12/28 15:34:40;;;;;;;11.45;6.28;;;;;;;4.72;73.36;96445.88;2184904;81;21167;-90
2020/12/28 15:37:44;;;;;;;9.80;5.80;;;;;;;4.66;73.29;96457.81;2183346;82;21757;-89
2020/12/28 15:40:57;;;;;;;9.60;5.00;;;;;;;4.63;73.37;96462.61;2183440;81;21143;-91
2020/12/28 15:44:06;;;;;;;13.38;6.45;;;;;;;4.58;73.08;96469.69;2182327;81;21297;-95
2020/12/28 15:47:30;;;;;;;;;;;;;;;;;;;;;
2020/12/28 15:50:27;;;;;;;14.75;7.83;;;;;;;4.61;73.18;96466.70;2142775;83;21154;-91
2020/12/28 15:53:36;;;;;;;;;;;;;;;4.64;73.01;96473.27;2147240;83;21181;-87
2020/12/28 16:00:08;;;;;;;10.28;6.83;;;;;;;4.59;72.99;96464.01;2146113;83;21155;-94
2020/12/28 16:03:24;;;;;;;8.78;5.92;;;;;;;4.55;72.90;96472.66;2146071;83;21274;-92
2020/12/28 16:06:40;;;;;;;11.28;6.15;;;;;;;4.52;72.62;96474.34;2115020;83;21534;-87
2020/12/28 16:09:42;;;;;;;9.98;6.10;;;;;;;4.54;72.80;96484.81;2145109;83;21293;-91
2020/12/28 16:12:46;;;;;;;7.87;4.85;;;;;;;4.54;72.69;96479.63;2144826;83;21332;-94
2020/12/28 16:15:55;;;;;;;12.43;6.53;;;;;;;4.54;72.76;96474.45;2135832;83;21175;-93
2020/12/28 16:18:57;;;;;;;10.58;6.60;;;;;;;4.51;72.64;96477.44;2142512;83;21162;-92
2020/12/28 16:21:58;;;;;;;12.82;6.37;;;;;;;4.50;72.70;96478.94;2144118;83;21179;-94
2020/12/28 16:25:08;;;;;;;6.55;5.22;;;;;;;4.48;72.51;96475.25;2117119;83;21336;-94
2020/12/28 16:28:11;;;;;;;11.45;5.53;;;;;;;4.54;72.43;96476.24;2144068;83;21301;-94
2020/12/28 16:31:13;;;;;;;10.58;6.35;;;;;;;4.58;72.50;96485.24;2144570;83;21154;-91
2020/12/28 16:34:14;;;;;;;10.70;6.33;;;;;;;4.62;72.36;96496.01;2144150;83;21728;-93
2020/12/28 16:37:16;;;;;;;12.28;6.40;;;;;;;4.66;72.30;96491.52;2144927;83;21269;-89
2020/12/28 16:40:18;;;;;;;9.38;6.28;;;;;;;4.68;71.82;96505.60;2145923;83;21167;-89
2020/12/28 16:43:20;;;;;;;9.93;5.10;;;;;;;4.67;72.01;96511.28;2144988;83;21280;-92
2020/12/28 16:46:21;;;;;;;8.20;5.05;;;;;;;4.63;71.27;96504.88;2144638;83;21159;-89
2020/12/28 16:49:23;;;;;;;9.93;5.97;;;;;;;4.61;71.65;96513.85;2144208;83;21214;-93
2020/12/28 16:52:25;;;;;;;9.28;5.90;;;;;;;4.57;71.69;96508.23;2143792;83;21156;-93
2020/12/28 16:55:27;;;;;;;7.72;5.85;;;;;;;4.53;71.64;96515.62;2143747;83;21579;-92
2020/12/28 16:58:29;;;;;;;13.40;7.22;;;;;;;4.50;71.90;96527.68;2144146;83;21300;-92
2020/12/28 17:01:30;;;;;;;8.30;6.30;;;;;;;4.47;72.10;96520.77;2117414;83;21119;-93
2020/12/28 17:04:32;;;;;;;11.03;6.35;;;;;;;4.42;71.85;96522.66;2143964;83;21175;-92
2020/12/28 17:07:33;;;;;;;8.50;5.95;;;;;;;4.39;72.24;96519.64;2143955;83;21321;-91
2020/12/28 17:10:39;;;;;;;11.18;6.60;;;;;;;4.39;72.02;96515.28;2143814;83;21297;-91
2020/12/28 17:13:41;;;;;;;10.30;6.70;;;;;;;4.39;72.25;96511.87;2143707;83;21292;-92
2020/12/28 17:16:42;;;;;;;12.05;7.05;;;;;;;4.38;72.05;96508.98;2142305;83;21297;-92
2020/12/28 17:19:46;;;;;;;11.18;6.17;;;;;;;4.36;72.34;96505.29;2133871;83;21622;-91
2020/12/28 17:22:47;;;;;;;11.40;5.87;;;;;;;4.33;72.22;96490.64;2133795;83;21333;-89
2020/12/28 17:25:49;;;;;;;11.10;5.97;;;;;;;4.28;72.38;96498.48;2133952;83;21349;-91
2020/12/28 17:28:50;;;;;;;13.50;6.78;;;;;;;4.26;72.03;96482.83;2134037;83;21321;-92
2020/12/28 17:31:52;;;;;;;11.05;7.12;;;;;;;4.26;72.21;96488.02;2134249;83;21322;-91
2020/12/28 17:34:54;;;;;;;11.40;6.75;;;;;;;4.24;72.49;96486.91;2134256;83;21286;-90
2020/12/28 17:37:56;;;;;;;14.13;7.72;;;;;;;4.19;72.60;96485.39;2134107;83;21170;-92
2020/12/28 17:40:58;;;;;;;13.75;8.80;;;;;;;4.13;72.87;96482.30;2134160;83;21321;-91
2020/12/28 17:44:00;;;;;;;18.62;10.40;;;;;;;4.08;73.11;96479.97;2134234;83;21321;-93
2020/12/28 17:47:01;;;;;;;20.55;10.50;;;;;;;4.00;73.28;96482.22;2134141;83;21171;-92
2020/12/28 17:50:03;;;;;;;17.85;9.40;;;;;;;3.95;73.47;96483.31;2134302;83;21289;-92
2020/12/28 17:53:05;;;;;;;18.73;9.85;;;;;;;3.88;73.62;96474.70;2134293;83;21321;-91